createdAt,value
2023-04-28T00:03:58.833Z,70.1
2023-04-28T00:08:44.965Z,70.3
2023-04-28T00:13:41.325Z,71.1
2023-04-28T00:18:47.827Z,70.3
2023-04-28T00:24:04.230Z,70.5
2023-04-28T00:29:54.752Z,70.6
2023-04-28T00:44:53.172Z,70.7
2023-04-28T00:49:29.504Z,70.8
2023-04-28T00:54:45.875Z,70.7
2023-04-28T01:00:06.324Z,71.1
2023-04-28T01:04:58.729Z,71.1
2023-04-28T01:10:05.132Z,70.8
2023-04-28T01:15:12.171Z,70.8
2023-04-28T01:30:51.551Z,71.0
2023-04-28T01:35:37.956Z,71.0
2023-04-28T01:46:14.777Z,71.1
2023-04-28T01:56:47.744Z,71.2
2023-04-28T02:01:10.057Z,71.2
2023-04-28T02:11:22.880Z,71.3
2023-04-28T02:17:13.337Z,71.2
2023-04-28T02:21:35.677Z,71.2
2023-04-28T02:27:26.174Z,71.2
2023-04-28T02:32:58.699Z,71.2
2023-04-28T02:37:14.935Z,71.3
2023-04-28T02:42:01.288Z,71.3
2023-04-28T02:47:07.769Z,71.5
2023-04-28T02:52:38.100Z,71.5
2023-04-28T03:02:26.886Z,71.6
2023-04-28T03:08:11.269Z,71.6
2023-04-28T03:12:39.572Z,71.7
2023-04-28T03:17:46.005Z,71.5
2023-04-28T03:33:08.829Z,71.5
2023-04-28T03:38:15.220Z,71.6
2023-04-28T03:44:18.254Z,71.5
2023-04-28T03:48:28.439Z,71.7
2023-04-28T03:53:34.746Z,71.7
2023-04-28T03:58:41.189Z,71.5
2023-04-28T04:04:43.875Z,71.9
2023-04-28T04:08:43.928Z,72.1
2023-04-28T04:14:01.561Z,72.1
2023-04-28T04:24:34.816Z,72.7
2023-04-28T04:29:21.136Z,72.5
2023-04-28T04:34:47.598Z,72.4
2023-04-28T04:40:11.970Z,72.5
2023-04-28T04:44:40.252Z,72.3
2023-04-28T04:49:46.634Z,72.4
2023-04-28T04:54:53.042Z,72.5
2023-04-28T04:59:59.564Z,72.1
2023-04-28T05:10:12.304Z,72.3
2023-04-28T05:15:18.812Z,72.8
2023-04-28T05:20:25.128Z,72.6
2023-04-28T05:25:21.429Z,72.6
2023-04-28T05:31:02.068Z,72.6
2023-04-28T05:35:44.367Z,72.6
2023-04-28T05:40:50.842Z,72.7
2023-04-28T05:56:10.008Z,73.3
2023-04-28T06:01:16.386Z,73.6
2023-04-28T06:06:22.841Z,73.5
2023-04-28T06:11:49.206Z,73.7
2023-04-28T06:16:35.637Z,73.6
2023-04-28T06:21:41.968Z,73.6
2023-04-28T06:37:21.131Z,74.5
2023-04-28T06:42:07.465Z,74.9
2023-04-28T06:47:13.846Z,75.0
2023-04-28T06:52:40.429Z,75.3
2023-04-28T06:57:16.719Z,76.0
2023-04-28T07:02:33.263Z,75.5
2023-04-28T07:07:39.691Z,75.7
2023-04-28T07:13:10.347Z,75.7
2023-04-28T07:18:12.886Z,75.6
2023-04-28T07:22:59.145Z,75.3
2023-04-28T07:28:49.622Z,75.2
2023-04-28T07:33:11.954Z,75.2
2023-04-28T07:38:18.264Z,75.6
2023-04-28T07:43:24.734Z,75.4
2023-04-28T07:48:45.146Z,75.1
2023-04-28T07:53:37.465Z,74.9
2023-04-28T07:58:33.826Z,75.1
2023-04-28T08:03:40.309Z,75.6
2023-04-28T08:08:56.832Z,75.9
2023-04-28T08:14:03.540Z,76.3
2023-04-28T08:19:33.728Z,76.9
2023-04-28T08:24:06.200Z,76.3
2023-04-28T08:29:22.565Z,77.4
2023-04-28T08:34:28.943Z,77.6
2023-04-28T08:39:35.348Z,77.2
2023-04-28T08:44:41.720Z,77.7
2023-04-28T08:49:48.100Z,77.5
2023-04-28T08:54:54.523Z,78.2
2023-04-28T09:04:57.432Z,79.2
2023-04-28T09:10:41.338Z,79.3
2023-04-28T09:15:13.623Z,80.4
2023-04-28T09:20:30.041Z,80.5
2023-04-28T09:36:09.199Z,80.1
2023-04-28T09:40:55.560Z,79.8
2023-04-28T09:46:02.020Z,80.1
2023-04-28T09:51:07.392Z,80.3
2023-04-28T09:56:14.693Z,80.8
2023-04-28T10:01:21.117Z,82.3
2023-04-28T10:06:26.488Z,83.2
2023-04-28T10:11:34.056Z,83.6
2023-04-28T10:17:04.598Z,83.8
2023-04-28T10:21:49.288Z,82.4
2023-04-28T10:26:53.436Z,82.1
2023-04-28T10:31:59.807Z,82.0
2023-04-28T10:37:06.245Z,81.9
2023-04-28T10:42:12.573Z,82.0
2023-04-28T10:47:18.960Z,82.6
2023-04-28T10:52:25.472Z,82.7
2023-04-28T10:57:21.933Z,82.3
2023-04-28T11:07:44.763Z,81.8
2023-04-28T11:12:51.112Z,82.0
2023-04-28T11:23:03.934Z,81.6
2023-04-28T11:28:10.298Z,81.3
2023-04-28T11:33:06.844Z,80.7
2023-04-28T11:38:23.292Z,80.4
2023-04-28T11:43:53.881Z,80.1
2023-04-28T11:48:36.199Z,80.0
2023-04-28T11:53:42.627Z,80.1
2023-04-28T11:58:48.961Z,80.3
2023-04-28T12:03:55.572Z,81.4
2023-04-28T12:09:01.783Z,81.4
2023-04-28T12:14:08.172Z,81.9
2023-04-28T12:19:14.563Z,82.0
2023-04-28T12:24:21.149Z,82.5
2023-04-28T12:29:27.491Z,83.0
2023-04-28T12:34:33.877Z,83.5
2023-04-28T12:39:40.532Z,83.8
2023-04-28T12:44:46.671Z,84.2
2023-04-28T12:54:59.453Z,85.9
2023-04-28T13:00:29.860Z,86.4
2023-04-28T13:05:12.311Z,86.9
2023-04-28T13:10:18.596Z,87.3
2023-04-28T13:15:24.999Z,88.1
2023-04-28T13:20:55.439Z,87.9
2023-04-28T13:26:01.840Z,88.7
2023-04-28T13:35:50.610Z,89.8
2023-04-28T13:40:58.141Z,89.8
2023-04-28T13:51:10.886Z,90.5
2023-04-28T13:56:17.275Z,90.6
2023-04-28T14:01:23.730Z,91.0
2023-04-28T14:06:30.132Z,91.7
2023-04-28T14:11:36.441Z,92.0
2023-04-28T14:21:49.391Z,92.4
2023-04-28T14:26:55.776Z,92.4
2023-04-28T14:34:22.886Z,92.3
2023-04-28T14:38:46.338Z,92.1
2023-04-28T14:43:52.870Z,92.2
2023-04-28T14:49:19.331Z,92.1
2023-04-28T14:54:25.737Z,92.1
2023-04-28T14:59:36.119Z,91.8
2023-04-28T15:04:18.723Z,91.8
2023-04-28T15:14:31.203Z,91.7
2023-04-28T15:19:41.185Z,91.9
2023-04-28T15:28:34.778Z,92.2
2023-04-28T15:33:42.200Z,92.5
2023-04-28T15:37:30.390Z,92.7
2023-04-28T15:42:56.833Z,92.9
2023-04-28T15:47:43.338Z,92.8
2023-04-28T15:52:50.194Z,92.8
2023-04-28T15:57:56.078Z,92.9
2023-04-28T16:03:02.544Z,93.0
2023-04-28T16:08:52.951Z,93.1
2023-04-28T16:13:15.220Z,93.1
2023-04-28T16:18:21.726Z,92.9
2023-04-28T16:23:18.193Z,92.9
2023-04-28T16:28:34.626Z,93.0
2023-04-28T16:38:47.362Z,93.5
2023-04-28T16:43:53.768Z,93.5
2023-04-28T16:49:00.165Z,93.5
2023-04-28T16:59:12.926Z,93.5
2023-04-28T17:04:19.544Z,93.2
2023-04-28T17:09:25.787Z,93.3
2023-04-28T17:14:22.289Z,93.2
2023-04-28T17:25:51.081Z,93.6
2023-04-28T17:30:35.436Z,94.3
2023-04-28T17:35:42.101Z,94.4
2023-04-28T17:40:04.494Z,94.3
2023-04-28T17:45:30.932Z,94.2
2023-04-28T17:50:37.321Z,93.9
2023-04-28T17:55:23.648Z,94.1
2023-04-28T18:00:30.023Z,93.7
2023-04-28T18:06:00.491Z,94.0
2023-04-28T18:11:06.830Z,94.0
2023-04-28T18:16:33.330Z,93.8
2023-04-28T18:31:08.360Z,93.7
2023-04-28T18:41:41.205Z,94.4
2023-04-28T18:46:27.718Z,94.3
2023-04-28T18:51:34.002Z,94.3
2023-04-28T18:56:40.503Z,94.2
2023-04-28T19:01:46.949Z,94.2
2023-04-28T19:17:06.179Z,94.3
2023-04-28T19:22:32.503Z,94.3
2023-04-28T19:27:18.851Z,94.8
2023-04-28T19:32:26.560Z,95.0
2023-04-28T19:42:39.241Z,95.1
2023-04-28T19:47:45.731Z,95.1
2023-04-28T19:52:52.024Z,95.4
2023-04-28T19:57:58.391Z,95.5
2023-04-28T20:03:04.958Z,96.3
2023-04-28T20:08:50.396Z,96.1
2023-04-28T20:14:10.813Z,95.8
2023-04-28T20:18:24.110Z,96.0
2023-04-28T20:24:14.557Z,95.6
2023-04-28T20:29:00.906Z,95.6
2023-04-28T20:33:33.273Z,95.6
2023-04-28T20:38:49.722Z,95.7
2023-04-28T20:43:56.124Z,95.4
2023-04-28T20:59:15.268Z,95.8
2023-04-28T21:04:21.747Z,95.9
2023-04-28T21:09:28.097Z,96.0
2023-04-28T21:14:34.482Z,95.8
2023-04-28T21:19:40.943Z,95.6
2023-04-28T21:25:43.412Z,95.8
2023-04-28T21:29:53.678Z,95.5
2023-04-28T21:35:00.208Z,95.4
2023-04-28T21:40:08.102Z,95.6
2023-04-28T21:51:15.230Z,95.9
2023-04-28T21:56:02.552Z,95.8
2023-04-28T22:01:10.181Z,96.0
2023-04-28T22:06:16.596Z,95.8
2023-04-28T22:11:22.984Z,95.8
2023-04-28T22:16:32.469Z,95.7
2023-04-28T22:21:38.874Z,95.7
2023-04-28T22:26:45.250Z,95.6
2023-04-28T22:31:51.660Z,95.9
2023-04-28T22:42:04.642Z,95.6
2023-04-28T22:52:17.373Z,95.6
2023-04-28T22:57:47.405Z,95.6
2023-04-28T23:02:57.895Z,95.6
2023-04-28T23:07:40.160Z,95.4
2023-04-28T23:12:46.721Z,95.5
2023-04-28T23:18:13.280Z,95.7
2023-04-28T23:22:59.596Z,95.7
2023-04-28T23:28:05.969Z,95.6
2023-04-28T23:33:12.389Z,95.7
2023-04-28T23:38:18.820Z,95.8
2023-04-28T23:43:25.354Z,95.7
2023-04-28T23:48:33.332Z,95.6
2023-04-28T23:53:39.892Z,95.6
2023-04-28T23:58:46.356Z,95.6
